createdAt,value
2023-03-27T00:02:26.242Z,97.81
2023-03-27T00:04:55.750Z,97.83
2023-03-27T00:07:23.419Z,96.97
2023-03-27T00:09:53.474Z,97.26
2023-03-27T00:12:21.103Z,97.40
2023-03-27T00:14:48.711Z,97.19
2023-03-27T00:17:16.335Z,97.22
2023-03-27T00:19:43.938Z,96.98
2023-03-27T00:22:11.740Z,96.66
2023-03-27T00:24:39.391Z,96.93
2023-03-27T00:27:09.127Z,96.62
2023-03-27T00:29:37.061Z,96.94
2023-03-27T00:32:04.985Z,97.11
2023-03-27T00:34:32.624Z,96.67
2023-03-27T00:37:00.345Z,96.48
2023-03-27T00:39:28.676Z,96.07
2023-03-27T00:41:56.467Z,95.97
2023-03-27T00:44:27.577Z,95.76
2023-03-27T00:46:57.172Z,95.21
2023-03-27T00:49:29.139Z,94.36
2023-03-27T00:51:59.010Z,94.35
2023-03-27T00:54:31.703Z,94.27
2023-03-27T00:57:05.319Z,93.96
2023-03-27T00:59:38.058Z,92.93
2023-03-27T01:02:07.563Z,93.70
2023-03-27T01:04:38.290Z,93.19
2023-03-27T01:07:11.215Z,93.34
2023-03-27T01:09:40.225Z,93.49
2023-03-27T01:12:17.001Z,93.57
2023-03-27T01:14:58.203Z,93.67
2023-03-27T01:17:42.510Z,93.45
2023-03-27T01:20:48.750Z,93.47
2023-03-27T01:23:59.142Z,93.96
2023-03-27T01:26:51.615Z,94.26
2023-03-27T01:29:25.650Z,93.82
2023-03-27T01:32:11.755Z,93.61
2023-03-27T01:35:04.776Z,93.25
2023-03-27T01:37:58.800Z,93.26
2023-03-27T01:40:33.475Z,93.09
2023-03-27T01:43:05.290Z,93.04
2023-03-27T01:45:39.225Z,92.01
2023-03-27T01:48:14.223Z,91.50
2023-03-27T01:50:46.723Z,91.10
2023-03-27T01:53:18.741Z,91.07
2023-03-27T01:55:51.482Z,91.11
2023-03-27T01:58:23.586Z,90.52
2023-03-27T02:00:56.534Z,90.14
2023-03-27T02:03:30.136Z,90.69
2023-03-27T02:06:04.485Z,90.17
2023-03-27T02:08:37.636Z,89.78
2023-03-27T02:11:16.341Z,90.35
2023-03-27T02:13:48.798Z,90.36
2023-03-27T02:16:21.219Z,90.77
2023-03-27T02:18:54.585Z,90.22
2023-03-27T02:21:23.602Z,90.79
2023-03-27T02:23:51.636Z,90.77
2023-03-27T02:26:20.792Z,90.53
2023-03-27T02:29:03.139Z,90.99
2023-03-27T02:31:42.433Z,91.21
2023-03-27T02:34:29.073Z,92.06
2023-03-27T02:37:03.857Z,91.88
2023-03-27T02:39:59.320Z,91.97
2023-03-27T02:42:36.708Z,92.02
2023-03-27T02:45:11.244Z,92.76
2023-03-27T02:47:43.313Z,93.24
2023-03-27T02:50:17.919Z,93.25
2023-03-27T02:52:51.255Z,94.15
2023-03-27T02:55:22.348Z,94.16
2023-03-27T02:57:56.574Z,94.25
2023-03-27T03:00:34.434Z,94.41
2023-03-27T03:03:34.786Z,94.87
2023-03-27T03:06:11.224Z,94.55
2023-03-27T03:08:39.582Z,95.27
2023-03-27T03:11:13.479Z,94.70
2023-03-27T03:13:42.570Z,94.59
2023-03-27T03:16:11.407Z,95.33
2023-03-27T03:18:40.743Z,95.13
2023-03-27T03:21:08.583Z,95.00
2023-03-27T03:23:36.473Z,94.85
2023-03-27T03:26:04.761Z,95.11
2023-03-27T03:29:00.764Z,95.35
2023-03-27T03:31:43.231Z,95.70
2023-03-27T03:34:11.723Z,96.20
2023-03-27T03:36:41.928Z,96.18
2023-03-27T03:39:11.463Z,95.71
2023-03-27T03:41:39.274Z,96.20
2023-03-27T03:44:08.396Z,96.20
2023-03-27T03:46:36.190Z,96.25
2023-03-27T03:49:04.901Z,96.23
2023-03-27T03:51:33.049Z,96.61
2023-03-27T03:54:01.333Z,96.38
2023-03-27T03:56:30.574Z,96.13
2023-03-27T03:58:58.906Z,95.92
2023-03-27T04:01:28.068Z,96.18
2023-03-27T04:04:00.686Z,96.46
2023-03-27T04:06:37.768Z,96.09
2023-03-27T04:09:05.962Z,96.44
2023-03-27T04:11:59.657Z,96.54
2023-03-27T04:14:46.493Z,95.77
2023-03-27T04:17:35.898Z,96.01
2023-03-27T04:20:06.234Z,95.06
2023-03-27T04:22:37.849Z,94.89
2023-03-27T04:25:09.415Z,94.79
2023-03-27T04:27:37.003Z,95.07
2023-03-27T04:30:16.054Z,94.73
2023-03-27T04:33:08.114Z,94.93
2023-03-27T04:37:56.464Z,94.47
2023-03-27T04:40:54.488Z,94.53
2023-03-27T04:43:26.125Z,94.70
2023-03-27T04:45:54.878Z,94.62
2023-03-27T04:48:23.336Z,94.90
2023-03-27T04:50:55.536Z,94.68
2023-03-27T04:53:37.738Z,94.84
2023-03-27T04:56:08.454Z,94.94
2023-03-27T04:58:41.092Z,94.66
2023-03-27T05:01:13.705Z,95.16
2023-03-27T05:03:58.892Z,94.93
2023-03-27T05:06:43.383Z,95.13
2023-03-27T05:09:17.634Z,95.15
2023-03-27T05:11:49.674Z,95.44
2023-03-27T05:14:17.828Z,95.71
2023-03-27T05:16:46.039Z,95.88
2023-03-27T05:19:13.861Z,95.42
2023-03-27T05:21:46.291Z,95.00
2023-03-27T05:24:16.432Z,95.61
2023-03-27T05:26:45.991Z,96.15
2023-03-27T05:29:14.353Z,96.50
2023-03-27T05:31:46.105Z,96.13
2023-03-27T05:34:34.648Z,95.56
2023-03-27T05:37:06.880Z,95.85
2023-03-27T05:39:46.212Z,96.06
2023-03-27T05:42:14.129Z,95.88
2023-03-27T05:44:43.375Z,96.46
2023-03-27T05:47:11.502Z,96.71
2023-03-27T05:49:39.304Z,96.77
2023-03-27T05:52:11.829Z,96.34
2023-03-27T05:54:39.628Z,96.41
2023-03-27T05:57:12.730Z,97.38
2023-03-27T05:59:41.875Z,96.74
2023-03-27T06:02:21.449Z,96.58
2023-03-27T06:04:59.112Z,96.51
2023-03-27T06:07:30.947Z,96.03
2023-03-27T06:10:03.661Z,96.18
2023-03-27T06:12:36.865Z,96.19
2023-03-27T06:15:25.690Z,96.34
2023-03-27T06:18:08.264Z,96.23
2023-03-27T06:20:38.203Z,96.10
2023-03-27T06:23:08.265Z,95.67
2023-03-27T06:25:41.096Z,94.85
2023-03-27T06:28:14.219Z,94.79
2023-03-27T06:30:50.409Z,95.01
2023-03-27T06:33:26.332Z,94.84
2023-03-27T06:36:02.054Z,94.25
2023-03-27T06:38:37.767Z,93.77
2023-03-27T06:41:06.803Z,94.28
2023-03-27T06:43:54.755Z,94.46
2023-03-27T06:46:45.458Z,94.50
2023-03-27T06:49:29.124Z,94.44
2023-03-27T06:51:57.647Z,94.66
2023-03-27T06:54:25.539Z,94.57
2023-03-27T06:56:56.389Z,94.33
2023-03-27T06:59:26.892Z,94.74
2023-03-27T07:02:02.685Z,94.28
2023-03-27T07:05:03.797Z,94.63
2023-03-27T07:07:41.420Z,94.76
2023-03-27T07:10:11.622Z,95.02
2023-03-27T07:12:41.365Z,95.21
2023-03-27T07:15:12.702Z,95.75
2023-03-27T07:17:49.160Z,95.20
2023-03-27T07:20:20.483Z,94.82
2023-03-27T07:22:48.578Z,95.07
2023-03-27T07:25:38.361Z,95.20
2023-03-27T07:28:16.818Z,94.23
2023-03-27T07:30:46.707Z,93.94
2023-03-27T07:33:15.133Z,94.16
2023-03-27T07:35:43.974Z,94.11
2023-03-27T07:38:31.971Z,93.29
2023-03-27T07:41:13.761Z,93.58
2023-03-27T07:44:05.240Z,93.39
2023-03-27T07:46:45.103Z,93.51
2023-03-27T07:49:17.825Z,92.37
2023-03-27T07:51:46.075Z,92.35
2023-03-27T07:54:15.456Z,91.38
2023-03-27T07:56:48.909Z,91.19
2023-03-27T07:59:33.871Z,90.04
2023-03-27T08:02:16.020Z,90.89
2023-03-27T08:04:43.920Z,89.79
2023-03-27T08:07:12.257Z,87.04
2023-03-27T08:09:44.869Z,87.18
2023-03-27T08:12:13.881Z,86.94
2023-03-27T08:14:45.750Z,86.69
2023-03-27T08:17:22.371Z,87.29
2023-03-27T08:19:50.971Z,87.59
2023-03-27T08:22:30.412Z,85.63
2023-03-27T08:25:43.231Z,84.95
2023-03-27T08:28:14.144Z,85.12
2023-03-27T08:30:53.962Z,85.34
2023-03-27T08:33:45.948Z,84.33
2023-03-27T08:36:25.979Z,85.12
2023-03-27T08:39:09.124Z,83.96
2023-03-27T08:42:01.050Z,81.93
2023-03-27T08:44:48.775Z,80.34
2023-03-27T08:47:27.821Z,78.11
2023-03-27T08:50:22.679Z,77.79
2023-03-27T08:53:01.619Z,77.28
2023-03-27T08:55:56.487Z,77.27
2023-03-27T08:58:43.549Z,76.93
2023-03-27T09:01:36.805Z,77.34
2023-03-27T09:04:26.141Z,75.66
2023-03-27T09:07:15.670Z,73.92
2023-03-27T09:10:07.508Z,72.91
2023-03-27T09:13:02.804Z,73.69
2023-03-27T09:15:51.326Z,72.91
2023-03-27T09:18:25.476Z,73.63
2023-03-27T09:21:10.973Z,73.65
2023-03-27T09:23:44.947Z,72.67
2023-03-27T09:26:46.528Z,71.08
2023-03-27T09:29:41.867Z,72.22
2023-03-27T09:32:57.173Z,72.17
2023-03-27T09:35:30.100Z,69.66
2023-03-27T09:38:04.178Z,69.15
2023-03-27T09:40:55.600Z,68.57
2023-03-27T09:43:36.225Z,67.66
2023-03-27T09:46:11.499Z,68.89
2023-03-27T09:48:57.021Z,69.14
2023-03-27T09:51:55.311Z,64.80
2023-03-27T09:54:53.646Z,66.25
2023-03-27T09:57:34.001Z,65.10
2023-03-27T10:00:13.424Z,64.02
2023-03-27T10:03:01.125Z,62.36
2023-03-27T10:05:30.376Z,62.32
2023-03-27T10:07:59.183Z,62.55
2023-03-27T10:10:57.660Z,59.57
2023-03-27T10:13:48.808Z,59.52
2023-03-27T10:16:22.771Z,59.66
2023-03-27T10:19:00.952Z,59.15
2023-03-27T10:21:36.307Z,57.67
2023-03-27T10:24:08.381Z,57.42
2023-03-27T10:26:54.729Z,56.14
2023-03-27T10:29:27.366Z,54.70
2023-03-27T10:31:56.931Z,53.63
2023-03-27T10:34:58.505Z,51.94
2023-03-27T10:37:50.484Z,53.77
2023-03-27T10:40:38.816Z,53.16
2023-03-27T10:43:25.544Z,54.53
2023-03-27T10:45:57.524Z,55.22
2023-03-27T10:48:37.330Z,53.20
2023-03-27T10:51:09.229Z,54.79
2023-03-27T10:53:58.820Z,53.46
2023-03-27T10:56:47.002Z,52.05
2023-03-27T10:59:28.072Z,51.26
2023-03-27T11:02:14.917Z,49.44
2023-03-27T11:04:50.035Z,51.42
2023-03-27T11:07:26.809Z,50.63
2023-03-27T11:10:03.632Z,51.89
2023-03-27T11:12:38.006Z,52.26
2023-03-27T11:15:14.722Z,50.01
2023-03-27T11:17:49.325Z,51.06
2023-03-27T11:20:44.276Z,50.13
2023-03-27T11:23:33.952Z,51.20
2023-03-27T11:26:23.234Z,52.82
2023-03-27T11:28:57.580Z,57.22
2023-03-27T11:31:40.209Z,60.08
2023-03-27T11:34:29.087Z,60.61
2023-03-27T11:37:05.865Z,62.25
2023-03-27T11:39:49.285Z,63.23
2023-03-27T11:42:21.977Z,65.07
2023-03-27T11:44:51.458Z,68.62
2023-03-27T11:48:13.814Z,72.66
2023-03-27T11:50:56.818Z,75.93
2023-03-27T11:53:41.216Z,77.95
2023-03-27T11:56:25.429Z,79.34
2023-03-27T11:59:19.440Z,82.45
2023-03-27T12:02:04.825Z,86.20
2023-03-27T12:04:45.685Z,88.71
2023-03-27T12:07:46.552Z,90.33
2023-03-27T12:10:29.239Z,89.91
2023-03-27T12:13:46.149Z,90.04
2023-03-27T12:16:41.383Z,89.40
2023-03-27T12:19:31.032Z,88.65
2023-03-27T12:22:24.993Z,88.22
2023-03-27T12:25:22.883Z,87.55
2023-03-27T12:28:37.755Z,84.53
2023-03-27T12:31:37.721Z,81.20
2023-03-27T12:34:07.099Z,78.91
2023-03-27T12:36:38.926Z,78.64
2023-03-27T12:39:16.151Z,78.50
2023-03-27T12:41:46.838Z,78.02
2023-03-27T12:44:30.987Z,73.28
2023-03-27T12:47:09.065Z,74.78
2023-03-27T12:49:47.922Z,72.95
2023-03-27T12:52:25.482Z,70.55
2023-03-27T12:55:28.316Z,70.84
2023-03-27T12:57:57.884Z,69.24
2023-03-27T13:01:00.350Z,70.94
2023-03-27T13:04:06.968Z,70.65
2023-03-27T13:06:45.636Z,70.94
2023-03-27T13:09:29.933Z,71.77
2023-03-27T13:12:19.761Z,69.94
2023-03-27T13:15:14.542Z,70.71
2023-03-27T13:17:56.953Z,70.47
2023-03-27T13:20:37.235Z,69.71
2023-03-27T13:23:19.635Z,68.68
2023-03-27T13:26:14.325Z,68.74
2023-03-27T13:28:49.019Z,67.47
2023-03-27T13:31:51.349Z,63.98
2023-03-27T13:34:42.698Z,63.25
2023-03-27T13:37:43.494Z,62.48
2023-03-27T13:40:24.495Z,62.78
2023-03-27T13:43:11.140Z,61.52
2023-03-27T13:45:46.858Z,60.44
2023-03-27T13:49:11.281Z,60.12
2023-03-27T13:52:06.238Z,60.46
2023-03-27T13:54:55.297Z,60.58
2023-03-27T13:57:49.754Z,59.72
2023-03-27T14:00:43.879Z,57.25
2023-03-27T14:03:49.069Z,58.11
2023-03-27T14:06:51.942Z,58.58
2023-03-27T14:09:35.367Z,59.36
2023-03-27T14:12:15.458Z,57.60
2023-03-27T14:15:22.236Z,55.65
2023-03-27T14:18:32.679Z,55.60
2023-03-27T14:21:03.384Z,55.48
2023-03-27T14:23:48.266Z,56.04
2023-03-27T14:26:33.722Z,57.08
2023-03-27T14:29:03.468Z,56.09
2023-03-27T14:31:51.585Z,56.14
2023-03-27T14:34:43.789Z,57.63
2023-03-27T14:37:39.550Z,59.12
2023-03-27T14:40:32.747Z,60.79
2023-03-27T14:43:07.978Z,63.19
2023-03-27T14:45:40.300Z,63.40
2023-03-27T14:48:21.139Z,62.97
2023-03-27T14:50:54.369Z,63.44
2023-03-27T14:53:27.087Z,64.61
2023-03-27T14:56:25.566Z,66.57
2023-03-27T14:58:57.340Z,66.35
2023-03-27T15:01:26.668Z,64.98
2023-03-27T15:03:56.367Z,64.89
2023-03-27T15:06:26.368Z,65.21
2023-03-27T15:09:05.340Z,64.65
2023-03-27T15:11:56.134Z,61.63
2023-03-27T15:14:31.443Z,63.02
2023-03-27T15:17:02.878Z,64.68
2023-03-27T15:19:45.551Z,66.20
2023-03-27T15:22:24.475Z,69.27
2023-03-27T15:24:56.736Z,72.51
2023-03-27T15:27:28.140Z,74.24
2023-03-27T15:30:00.622Z,76.93
2023-03-27T15:32:46.378Z,77.25
2023-03-27T15:35:18.254Z,78.89
2023-03-27T15:37:46.366Z,80.04
2023-03-27T15:40:41.778Z,80.90
2023-03-27T15:43:22.818Z,80.62
2023-03-27T15:46:02.632Z,80.93
2023-03-27T15:48:32.227Z,80.96
2023-03-27T15:51:02.268Z,82.08
2023-03-27T15:53:38.593Z,83.76
2023-03-27T15:56:17.150Z,83.12
2023-03-27T15:58:49.242Z,84.23
2023-03-27T16:01:21.525Z,82.99
2023-03-27T16:03:51.292Z,82.44
2023-03-27T16:06:30.671Z,83.87
2023-03-27T16:08:58.975Z,83.73
2023-03-27T16:11:40.466Z,82.96
2023-03-27T16:14:22.562Z,82.36
2023-03-27T16:16:55.487Z,81.47
2023-03-27T16:19:23.088Z,83.15
2023-03-27T16:21:58.171Z,82.60
2023-03-27T16:24:26.044Z,82.20
2023-03-27T16:26:54.868Z,83.10
2023-03-27T16:29:22.871Z,82.76
2023-03-27T16:31:51.929Z,83.72
2023-03-27T16:34:22.863Z,83.64
2023-03-27T16:36:50.768Z,83.90
2023-03-27T16:39:18.407Z,83.77
2023-03-27T16:41:46.342Z,82.64
2023-03-27T16:44:13.974Z,83.87
2023-03-27T16:46:41.685Z,83.55
2023-03-27T16:49:13.512Z,83.09
2023-03-27T16:51:41.161Z,83.00
2023-03-27T16:54:08.742Z,82.85
2023-03-27T16:56:36.761Z,83.17
2023-03-27T16:59:04.732Z,83.97
2023-03-27T17:01:32.378Z,83.97
2023-03-27T17:04:00.005Z,83.80
2023-03-27T17:06:28.964Z,85.30
2023-03-27T17:08:56.589Z,85.27
2023-03-27T17:11:24.287Z,86.09
2023-03-27T17:13:52.640Z,86.66
2023-03-27T17:16:20.322Z,87.02
2023-03-27T17:18:48.086Z,87.05
2023-03-27T17:21:15.680Z,87.58
2023-03-27T17:23:48.260Z,87.42
2023-03-27T17:26:22.755Z,87.74
2023-03-27T17:28:50.516Z,88.48
2023-03-27T17:31:18.233Z,89.48
2023-03-27T17:33:45.922Z,89.75
2023-03-27T17:36:15.739Z,89.88
2023-03-27T17:38:44.933Z,90.53
2023-03-27T17:41:14.586Z,90.08
2023-03-27T17:43:42.217Z,90.18
2023-03-27T17:46:10.076Z,90.33
2023-03-27T17:48:37.932Z,91.67
2023-03-27T17:51:09.251Z,91.64
2023-03-27T17:53:38.102Z,91.27
2023-03-27T17:56:08.455Z,91.50
2023-03-27T17:58:36.990Z,92.05
2023-03-27T18:01:16.459Z,91.19
2023-03-27T18:03:45.213Z,91.40
2023-03-27T18:06:13.306Z,90.85
2023-03-27T18:08:41.446Z,90.51
2023-03-27T18:11:12.733Z,90.81
2023-03-27T18:13:41.232Z,91.14
2023-03-27T18:16:10.912Z,91.81
2023-03-27T18:18:39.992Z,91.58
2023-03-27T18:21:09.431Z,92.23
2023-03-27T18:23:46.109Z,92.75
2023-03-27T18:26:16.572Z,92.65
2023-03-27T18:28:44.485Z,92.68
2023-03-27T18:31:13.265Z,92.91
2023-03-27T18:33:41.141Z,92.31
2023-03-27T18:36:10.836Z,92.51
2023-03-27T18:38:40.114Z,92.65
2023-03-27T18:41:08.466Z,92.95
2023-03-27T18:43:37.520Z,93.08
2023-03-27T18:46:07.149Z,93.36
2023-03-27T18:48:35.398Z,92.87
2023-03-27T18:51:04.629Z,93.47
2023-03-27T18:53:32.383Z,92.90
2023-03-27T18:56:00.847Z,93.96
2023-03-27T18:58:30.218Z,93.77
2023-03-27T19:00:59.987Z,93.36
2023-03-27T19:03:30.411Z,93.86
2023-03-27T19:06:02.157Z,93.97
2023-03-27T19:08:30.723Z,94.65
2023-03-27T19:10:58.520Z,94.68
2023-03-27T19:13:45.025Z,94.42
2023-03-27T19:16:26.918Z,94.49
2023-03-27T19:19:13.305Z,94.55
2023-03-27T19:22:01.281Z,94.84
2023-03-27T19:24:48.691Z,95.03
2023-03-27T19:27:23.656Z,95.72
2023-03-27T19:29:52.740Z,95.55
2023-03-27T19:32:21.860Z,95.39
2023-03-27T19:34:49.483Z,95.39
2023-03-27T19:37:17.296Z,95.63
2023-03-27T19:39:44.903Z,95.89
2023-03-27T19:42:12.579Z,95.43
2023-03-27T19:44:40.192Z,95.64
2023-03-27T19:47:09.635Z,95.48
2023-03-27T19:49:38.644Z,95.36
2023-03-27T19:52:19.808Z,95.56
2023-03-27T19:54:47.584Z,95.46
2023-03-27T19:57:15.515Z,95.47
2023-03-27T19:59:43.168Z,95.99
2023-03-27T20:02:12.244Z,95.52
2023-03-27T20:04:41.349Z,95.69
2023-03-27T20:07:10.139Z,95.63
2023-03-27T20:09:38.259Z,95.47
2023-03-27T20:12:06.781Z,95.00
2023-03-27T20:14:34.401Z,93.93
2023-03-27T20:17:02.059Z,93.92
2023-03-27T20:19:30.466Z,93.69
2023-03-27T20:22:02.183Z,93.46
2023-03-27T20:24:29.828Z,93.25
2023-03-27T20:27:02.120Z,93.18
2023-03-27T20:29:29.848Z,93.47
2023-03-27T20:31:57.548Z,92.23
2023-03-27T20:34:25.231Z,92.36
2023-03-27T20:36:54.899Z,92.27
2023-03-27T20:39:44.668Z,92.24
2023-03-27T20:42:14.995Z,92.00
2023-03-27T20:44:43.744Z,91.63
2023-03-27T20:47:12.359Z,91.16
2023-03-27T20:49:44.176Z,91.82
2023-03-27T20:52:14.399Z,91.31
2023-03-27T20:54:43.374Z,91.58
2023-03-27T20:57:12.821Z,91.43
2023-03-27T20:59:40.597Z,91.66
2023-03-27T21:02:08.340Z,91.80
2023-03-27T21:04:36.300Z,91.43
2023-03-27T21:07:05.114Z,92.20
2023-03-27T21:09:32.797Z,92.31
2023-03-27T21:12:02.002Z,92.28
2023-03-27T21:14:29.582Z,93.34
2023-03-27T21:16:57.258Z,93.34
2023-03-27T21:19:24.925Z,93.23
2023-03-27T21:21:52.865Z,93.91
2023-03-27T21:24:20.791Z,94.08
2023-03-27T21:26:49.445Z,94.52
2023-03-27T21:29:20.837Z,94.90
2023-03-27T21:31:48.559Z,95.70
2023-03-27T21:34:16.306Z,95.42
2023-03-27T21:36:44.054Z,96.65
2023-03-27T21:39:11.777Z,97.50
2023-03-27T21:41:39.432Z,97.73
2023-03-27T21:44:07.035Z,98.42
2023-03-27T21:46:36.089Z,99.15
2023-03-27T21:49:03.735Z,99.56
2023-03-27T21:51:31.382Z,100.00
2023-03-27T21:53:58.960Z,100.00
2023-03-27T21:56:26.622Z,100.00
2023-03-27T21:58:57.294Z,100.00
2023-03-27T22:01:25.081Z,100.00
2023-03-27T22:03:54.141Z,100.00
2023-03-27T22:06:21.851Z,100.00
2023-03-27T22:08:49.471Z,100.00
2023-03-27T22:11:17.303Z,100.00
2023-03-27T22:13:46.519Z,100.00
2023-03-27T22:16:16.772Z,100.00
2023-03-27T22:18:45.079Z,100.00
2023-03-27T22:21:17.678Z,100.00
2023-03-27T22:23:50.790Z,100.00
2023-03-27T22:26:19.193Z,100.00
2023-03-27T22:28:46.884Z,100.00
2023-03-27T22:31:14.656Z,99.70
2023-03-27T22:33:42.386Z,99.25
2023-03-27T22:36:11.833Z,98.88
2023-03-27T22:38:41.340Z,98.94
2023-03-27T22:41:12.248Z,98.64
2023-03-27T22:43:40.148Z,99.07
2023-03-27T22:46:09.462Z,99.06
2023-03-27T22:48:37.204Z,99.05
2023-03-27T22:51:05.538Z,99.27
2023-03-27T22:53:33.774Z,99.46
2023-03-27T22:56:03.537Z,99.44
2023-03-27T22:58:31.580Z,99.82
2023-03-27T23:00:59.811Z,99.81
2023-03-27T23:03:28.491Z,99.65
2023-03-27T23:05:56.361Z,99.99
2023-03-27T23:08:27.141Z,99.87
2023-03-27T23:10:56.326Z,100.00
2023-03-27T23:13:26.176Z,100.00
2023-03-27T23:15:54.176Z,100.00
2023-03-27T23:18:24.617Z,100.00
2023-03-27T23:20:56.188Z,100.00
2023-03-27T23:23:23.947Z,100.00
2023-03-27T23:25:51.954Z,100.00
2023-03-27T23:28:19.774Z,100.00
2023-03-27T23:30:55.082Z,100.00
2023-03-27T23:33:24.929Z,100.00
2023-03-27T23:35:53.293Z,100.00
2023-03-27T23:38:21.240Z,100.00
2023-03-27T23:40:55.604Z,100.00
2023-03-27T23:43:23.391Z,100.00
2023-03-27T23:45:51.089Z,100.00
2023-03-27T23:48:20.407Z,100.00
2023-03-27T23:50:48.586Z,100.00
2023-03-27T23:53:16.215Z,100.00
2023-03-27T23:55:43.846Z,100.00
2023-03-27T23:58:11.419Z,100.00
